createdAt,value
2023-04-23T00:00:03.384Z,19.50
2023-04-23T00:02:37.130Z,19.50
2023-04-23T00:05:12.235Z,19.50
2023-04-23T00:07:45.798Z,19.50
2023-04-23T00:10:23.143Z,19.50
2023-04-23T00:12:57.394Z,19.50
2023-04-23T00:15:31.237Z,19.50
2023-04-23T00:18:04.045Z,19.50
2023-04-23T00:20:37.306Z,19.60
2023-04-23T00:23:10.171Z,19.60
2023-04-23T00:25:43.247Z,19.60
2023-04-23T00:28:16.158Z,19.60
2023-04-23T00:30:49.118Z,19.60
2023-04-23T00:33:21.962Z,19.60
2023-04-23T00:35:54.808Z,19.60
2023-04-23T00:38:28.368Z,19.60
2023-04-23T00:41:01.169Z,19.60
2023-04-23T00:43:34.546Z,19.70
2023-04-23T00:46:08.445Z,19.70
2023-04-23T00:48:42.263Z,19.70
2023-04-23T00:51:16.063Z,19.70
2023-04-23T00:53:49.148Z,19.80
2023-04-23T00:56:22.414Z,19.80
2023-04-23T00:58:56.209Z,19.80
2023-04-23T01:01:29.044Z,19.80
2023-04-23T01:04:01.996Z,19.80
2023-04-23T01:06:35.147Z,19.80
2023-04-23T01:09:12.155Z,19.80
2023-04-23T01:11:46.619Z,19.80
2023-04-23T01:14:19.955Z,19.80
2023-04-23T01:16:54.650Z,19.80
2023-04-23T01:19:27.590Z,19.80
2023-04-23T01:22:02.237Z,19.80
2023-04-23T01:24:36.122Z,19.80
2023-04-23T01:27:09.437Z,19.80
2023-04-23T01:29:43.137Z,19.80
2023-04-23T01:32:16.027Z,19.80
2023-04-23T01:34:49.945Z,19.80
2023-04-23T01:37:23.407Z,19.80
2023-04-23T01:39:56.515Z,19.80
2023-04-23T01:42:29.300Z,19.80
2023-04-23T01:45:06.360Z,19.80
2023-04-23T01:47:41.581Z,19.80
2023-04-23T01:50:15.003Z,19.80
2023-04-23T01:52:48.219Z,19.80
2023-04-23T01:55:28.125Z,19.80
2023-04-23T01:58:01.276Z,19.90
2023-04-23T02:00:34.755Z,19.90
2023-04-23T02:03:07.932Z,19.90
2023-04-23T02:05:42.044Z,19.80
2023-04-23T02:08:15.441Z,19.90
2023-04-23T02:10:48.184Z,19.90
2023-04-23T02:13:21.179Z,19.90
2023-04-23T02:15:54.051Z,19.90
2023-04-23T02:18:27.197Z,19.90
2023-04-23T02:21:01.282Z,19.90
2023-04-23T02:23:34.157Z,19.90
2023-04-23T02:26:07.017Z,19.90
2023-04-23T02:28:40.732Z,19.90
2023-04-23T02:31:13.589Z,19.90
2023-04-23T02:33:46.601Z,19.90
2023-04-23T02:36:19.755Z,19.90
2023-04-23T02:38:53.046Z,19.90
2023-04-23T02:41:25.769Z,19.90
2023-04-23T02:44:02.802Z,19.90
2023-04-23T02:46:35.762Z,19.80
2023-04-23T02:49:08.636Z,19.80
2023-04-23T02:51:41.250Z,19.80
2023-04-23T02:54:14.049Z,19.80
2023-04-23T02:56:47.011Z,19.70
2023-04-23T02:59:19.907Z,19.70
2023-04-23T03:01:53.390Z,19.70
2023-04-23T03:04:26.372Z,19.70
2023-04-23T03:06:59.346Z,19.70
2023-04-23T03:09:32.224Z,19.70
2023-04-23T03:12:05.059Z,19.70
2023-04-23T03:14:38.245Z,19.70
2023-04-23T03:17:11.136Z,19.70
2023-04-23T03:19:43.890Z,19.70
2023-04-23T03:22:16.436Z,19.70
2023-04-23T03:24:49.711Z,19.70
2023-04-23T03:27:22.624Z,19.70
2023-04-23T03:29:55.398Z,19.70
2023-04-23T03:32:28.253Z,19.70
2023-04-23T03:35:01.002Z,19.70
2023-04-23T03:37:33.819Z,19.60
2023-04-23T03:40:08.212Z,19.60
2023-04-23T03:42:40.795Z,19.60
2023-04-23T03:45:15.368Z,19.60
2023-04-23T03:47:48.211Z,19.60
2023-04-23T03:50:21.006Z,19.60
2023-04-23T03:52:54.218Z,19.60
2023-04-23T03:55:27.166Z,19.60
2023-04-23T03:57:59.911Z,19.60
2023-04-23T04:00:32.647Z,19.60
2023-04-23T04:03:06.130Z,19.60
2023-04-23T04:05:39.212Z,19.50
2023-04-23T04:08:11.961Z,19.50
2023-04-23T04:10:44.864Z,19.50
2023-04-23T04:13:18.072Z,19.50
2023-04-23T04:15:50.950Z,19.50
2023-04-23T04:18:24.064Z,19.50
2023-04-23T04:20:57.055Z,19.50
2023-04-23T04:23:30.459Z,19.50
2023-04-23T04:26:03.834Z,19.50
2023-04-23T04:28:37.947Z,19.50
2023-04-23T04:31:12.061Z,19.50
2023-04-23T04:33:45.186Z,19.40
2023-04-23T04:36:17.995Z,19.40
2023-04-23T04:38:50.659Z,19.40
2023-04-23T04:41:23.656Z,19.40
2023-04-23T04:43:57.808Z,19.40
2023-04-23T04:46:31.243Z,19.30
2023-04-23T04:49:04.192Z,19.30
2023-04-23T04:51:36.883Z,19.30
2023-04-23T04:54:10.131Z,19.30
2023-04-23T04:56:42.950Z,19.30
2023-04-23T04:59:16.041Z,19.30
2023-04-23T05:01:49.702Z,19.20
2023-04-23T05:04:22.758Z,19.20
2023-04-23T05:06:55.622Z,19.20
2023-04-23T05:09:32.595Z,19.20
2023-04-23T05:12:05.728Z,19.20
2023-04-23T05:14:39.019Z,19.20
2023-04-23T05:17:13.592Z,19.20
2023-04-23T05:19:46.270Z,19.20
2023-04-23T05:22:20.204Z,19.20
2023-04-23T05:24:53.051Z,19.20
2023-04-23T05:27:25.923Z,19.20
2023-04-23T05:29:58.832Z,19.20
2023-04-23T05:32:31.535Z,19.20
2023-04-23T05:35:04.846Z,19.20
2023-04-23T05:37:37.588Z,19.20
2023-04-23T05:40:11.089Z,19.20
2023-04-23T05:42:43.731Z,19.10
2023-04-23T05:45:16.901Z,19.20
2023-04-23T05:47:49.899Z,19.10
2023-04-23T05:50:22.813Z,19.10
2023-04-23T05:52:55.979Z,19.10
2023-04-23T05:55:28.791Z,19.10
2023-04-23T05:58:01.713Z,19.10
2023-04-23T06:00:34.585Z,19.10
2023-04-23T06:03:07.547Z,19.10
2023-04-23T06:05:40.589Z,19.10
2023-04-23T06:08:16.123Z,19.00
2023-04-23T06:10:48.993Z,19.00
2023-04-23T06:13:22.092Z,19.00
2023-04-23T06:15:55.383Z,19.00
2023-04-23T06:18:29.467Z,19.00
2023-04-23T06:21:04.053Z,19.00
2023-04-23T06:23:37.113Z,19.00
2023-04-23T06:26:09.786Z,19.00
2023-04-23T06:28:42.626Z,18.90
2023-04-23T06:31:15.647Z,18.90
2023-04-23T06:33:48.431Z,18.90
2023-04-23T06:36:21.351Z,18.90
2023-04-23T06:38:58.025Z,18.90
2023-04-23T06:41:30.770Z,18.90
2023-04-23T06:44:03.520Z,18.90
2023-04-23T06:46:36.466Z,18.90
2023-04-23T06:49:09.285Z,18.90
2023-04-23T06:51:42.167Z,18.90
2023-04-23T06:54:16.626Z,18.90
2023-04-23T06:56:49.565Z,18.80
2023-04-23T06:59:22.320Z,18.80
2023-04-23T07:01:55.132Z,18.80
2023-04-23T07:04:27.814Z,18.80
2023-04-23T07:07:00.624Z,18.80
2023-04-23T07:09:33.507Z,18.80
2023-04-23T07:12:06.118Z,18.70
2023-04-23T07:14:39.145Z,18.70
2023-04-23T07:17:13.262Z,18.70
2023-04-23T07:19:46.336Z,18.70
2023-04-23T07:22:19.219Z,18.70
2023-04-23T07:24:52.053Z,18.70
2023-04-23T07:27:24.894Z,18.70
2023-04-23T07:29:57.935Z,18.70
2023-04-23T07:32:30.936Z,18.70
2023-04-23T07:35:03.680Z,18.60
2023-04-23T07:37:36.500Z,18.60
2023-04-23T07:40:10.958Z,18.60
2023-04-23T07:42:43.790Z,18.60
2023-04-23T07:45:17.490Z,18.60
2023-04-23T07:47:51.460Z,18.60
2023-04-23T07:50:24.446Z,18.50
2023-04-23T07:52:57.710Z,18.50
2023-04-23T07:55:30.669Z,18.50
2023-04-23T07:58:04.031Z,18.50
2023-04-23T08:00:41.155Z,18.50
2023-04-23T08:03:16.354Z,18.50
2023-04-23T08:05:49.581Z,18.40
2023-04-23T08:08:22.420Z,18.40
2023-04-23T08:10:55.052Z,18.40
2023-04-23T08:13:27.999Z,18.40
2023-04-23T08:16:00.981Z,18.40
2023-04-23T08:18:33.551Z,18.40
2023-04-23T08:21:06.670Z,18.30
2023-04-23T08:23:39.536Z,18.30
2023-04-23T08:26:12.288Z,18.30
2023-04-23T08:28:45.209Z,18.30
2023-04-23T08:31:25.888Z,18.20
2023-04-23T08:33:52.459Z,18.20
2023-04-23T08:36:25.400Z,18.20
2023-04-23T08:38:58.037Z,18.20
2023-04-23T08:41:33.369Z,18.20
2023-04-23T08:44:08.194Z,18.20
2023-04-23T08:46:43.244Z,18.10
2023-04-23T08:49:22.936Z,18.10
2023-04-23T08:51:57.033Z,18.10
2023-04-23T08:54:34.002Z,18.10
2023-04-23T08:57:07.112Z,18.10
2023-04-23T08:59:40.956Z,18.10
2023-04-23T09:02:14.165Z,18.10
2023-04-23T09:04:49.563Z,18.10
2023-04-23T09:07:22.377Z,18.10
2023-04-23T09:09:55.039Z,18.10
2023-04-23T09:12:27.874Z,18.10
2023-04-23T09:15:00.851Z,18.00
2023-04-23T09:17:35.125Z,18.00
2023-04-23T09:20:15.104Z,18.00
2023-04-23T09:22:54.827Z,18.00
2023-04-23T09:25:28.366Z,18.00
2023-04-23T09:28:03.651Z,18.00
2023-04-23T09:30:38.070Z,17.90
2023-04-23T09:33:11.163Z,17.90
2023-04-23T09:35:45.152Z,17.90
2023-04-23T09:38:18.177Z,17.90
2023-04-23T09:40:51.094Z,17.90
2023-04-23T09:43:24.097Z,17.90
2023-04-23T09:45:57.060Z,17.90
2023-04-23T09:48:31.214Z,17.90
2023-04-23T09:51:05.521Z,17.90
2023-04-23T09:53:46.587Z,17.90
2023-04-23T09:56:19.539Z,17.90
2023-04-23T09:58:56.700Z,17.90
2023-04-23T10:01:35.609Z,17.90
2023-04-23T10:04:08.870Z,17.80
2023-04-23T10:06:50.071Z,17.90
2023-04-23T10:09:16.300Z,17.80
2023-04-23T10:11:53.594Z,17.80
2023-04-23T10:14:30.127Z,17.80
2023-04-23T10:17:06.035Z,17.80
2023-04-23T10:19:41.768Z,17.80
2023-04-23T10:22:19.583Z,17.80
2023-04-23T10:24:52.184Z,17.80
2023-04-23T10:27:36.649Z,17.80
2023-04-23T10:30:00.990Z,17.80
2023-04-23T10:32:34.736Z,17.80
2023-04-23T10:35:07.687Z,17.80
2023-04-23T10:37:41.644Z,17.70
2023-04-23T10:40:16.871Z,17.80
2023-04-23T10:42:50.181Z,17.80
2023-04-23T10:45:25.627Z,17.80
2023-04-23T10:48:01.719Z,17.80
2023-04-23T10:50:37.804Z,17.80
2023-04-23T10:53:11.817Z,17.80
2023-04-23T10:55:44.939Z,17.80
2023-04-23T10:58:17.881Z,17.70
2023-04-23T11:00:50.866Z,17.80
2023-04-23T11:03:45.192Z,17.70
2023-04-23T11:06:20.617Z,17.70
2023-04-23T11:08:57.164Z,17.70
2023-04-23T11:11:46.589Z,17.60
2023-04-23T11:14:19.798Z,17.60
2023-04-23T11:16:53.562Z,17.60
2023-04-23T11:19:27.555Z,17.60
2023-04-23T11:22:02.887Z,17.60
2023-04-23T11:24:41.620Z,17.50
2023-04-23T11:27:22.256Z,17.50
2023-04-23T11:29:57.364Z,17.50
2023-04-23T11:32:31.211Z,17.50
2023-04-23T11:35:06.584Z,17.50
2023-04-23T11:37:50.321Z,17.50
2023-04-23T11:40:23.492Z,17.50
2023-04-23T11:42:57.564Z,17.50
2023-04-23T11:45:32.373Z,17.50
2023-04-23T11:48:05.626Z,17.50
2023-04-23T11:50:39.752Z,17.50
2023-04-23T11:53:13.614Z,17.50
2023-04-23T11:55:47.648Z,17.50
2023-04-23T11:58:24.114Z,17.50
2023-04-23T12:01:04.498Z,17.50
2023-04-23T12:03:37.429Z,17.50
2023-04-23T12:06:11.533Z,17.50
2023-04-23T12:08:44.994Z,17.50
2023-04-23T12:11:17.868Z,17.50
2023-04-23T12:13:50.600Z,17.50
2023-04-23T12:16:25.054Z,17.50
2023-04-23T12:18:58.805Z,17.50
2023-04-23T12:21:31.848Z,17.50
2023-04-23T12:24:06.764Z,17.50
2023-04-23T12:26:41.480Z,17.50
2023-04-23T12:29:15.241Z,17.50
2023-04-23T12:31:48.358Z,17.50
2023-04-23T12:34:22.005Z,17.50
2023-04-23T12:36:56.695Z,17.40
2023-04-23T12:39:35.543Z,17.40
2023-04-23T12:42:12.397Z,17.40
2023-04-23T12:44:45.319Z,17.40
2023-04-23T12:47:19.374Z,17.40
2023-04-23T12:49:54.508Z,17.40
2023-04-23T12:52:27.441Z,17.40
2023-04-23T12:55:06.503Z,17.40
2023-04-23T12:57:39.353Z,17.40
2023-04-23T13:00:13.035Z,17.40
2023-04-23T13:02:46.374Z,17.40
2023-04-23T13:05:19.247Z,17.40
2023-04-23T13:07:52.175Z,17.40
2023-04-23T13:10:25.098Z,17.40
2023-04-23T13:12:57.866Z,17.40
2023-04-23T13:15:30.602Z,17.40
2023-04-23T13:18:03.490Z,17.40
2023-04-23T13:20:36.278Z,17.40
2023-04-23T13:23:10.469Z,17.40
2023-04-23T13:25:43.306Z,17.40
2023-04-23T13:28:16.662Z,17.40
2023-04-23T13:30:49.463Z,17.40
2023-04-23T13:33:23.023Z,17.40
2023-04-23T13:35:56.432Z,17.40
2023-04-23T13:38:33.598Z,17.30
2023-04-23T13:41:06.611Z,17.30
2023-04-23T13:43:39.375Z,17.30
2023-04-23T13:46:12.178Z,17.30
2023-04-23T13:48:45.054Z,17.30
2023-04-23T13:51:33.176Z,17.30
2023-04-23T13:53:51.673Z,17.30
2023-04-23T13:56:24.701Z,17.30
2023-04-23T13:59:17.625Z,17.30
2023-04-23T14:01:32.689Z,17.30
2023-04-23T14:04:06.137Z,17.30
2023-04-23T14:06:39.721Z,17.30
2023-04-23T14:09:12.597Z,17.30
2023-04-23T14:11:45.292Z,17.30
2023-04-23T14:14:18.536Z,17.30
2023-04-23T14:16:51.591Z,17.30
2023-04-23T14:19:25.066Z,17.30
2023-04-23T14:21:57.725Z,17.20
2023-04-23T14:24:38.003Z,17.20
2023-04-23T14:27:15.543Z,17.20
2023-04-23T14:29:55.829Z,17.20
2023-04-23T14:32:28.846Z,17.20
2023-04-23T14:35:01.721Z,17.20
2023-04-23T14:37:34.793Z,17.20
2023-04-23T14:40:08.035Z,17.20
2023-04-23T14:42:40.984Z,17.20
2023-04-23T14:45:15.668Z,17.20
2023-04-23T14:47:50.161Z,17.20
2023-04-23T14:50:22.966Z,17.20
2023-04-23T14:52:55.782Z,17.20
2023-04-23T14:55:28.716Z,17.20
2023-04-23T14:58:01.614Z,17.20
2023-04-23T15:00:34.506Z,17.20
2023-04-23T15:03:08.808Z,17.20
2023-04-23T15:05:43.531Z,17.20
2023-04-23T15:08:16.382Z,17.20
2023-04-23T15:10:49.298Z,17.20
2023-04-23T15:13:55.583Z,17.20
2023-04-23T15:19:09.608Z,17.10
2023-04-23T15:21:43.949Z,17.20
2023-04-23T15:24:17.036Z,17.20
2023-04-23T15:26:51.359Z,17.20
2023-04-23T15:29:26.085Z,17.20
2023-04-23T15:32:00.001Z,17.20
2023-04-23T15:34:32.701Z,17.20
2023-04-23T15:37:05.571Z,17.20
2023-04-23T15:39:38.464Z,17.20
2023-04-23T15:42:13.201Z,17.10
2023-04-23T15:44:46.369Z,17.10
2023-04-23T15:47:21.617Z,17.10
2023-04-23T15:49:53.853Z,17.10
2023-04-23T15:52:26.802Z,17.10
2023-04-23T15:54:59.763Z,17.10
2023-04-23T15:57:32.580Z,17.10
2023-04-23T16:00:05.665Z,17.10
2023-04-23T16:02:39.729Z,17.10
2023-04-23T16:05:13.757Z,17.10
2023-04-23T16:07:46.703Z,17.10
2023-04-23T16:10:19.506Z,17.10
2023-04-23T16:12:52.389Z,17.10
2023-04-23T16:15:25.195Z,17.10
2023-04-23T16:17:58.359Z,17.10
2023-04-23T16:20:31.154Z,17.10
2023-04-23T16:23:04.160Z,17.10
2023-04-23T16:25:37.082Z,17.10
2023-04-23T16:28:10.442Z,17.10
2023-04-23T16:30:43.906Z,17.10
2023-04-23T16:33:16.683Z,17.00
2023-04-23T16:35:49.589Z,17.10
2023-04-23T16:38:22.282Z,17.00
2023-04-23T16:40:55.041Z,17.00
2023-04-23T16:43:27.925Z,17.00
2023-04-23T16:46:00.736Z,17.00
2023-04-23T16:48:33.507Z,17.00
2023-04-23T16:51:06.318Z,17.00
2023-04-23T16:53:39.320Z,17.00
2023-04-23T16:56:12.270Z,17.00
2023-04-23T16:58:45.074Z,17.00
2023-04-23T17:01:19.517Z,17.00
2023-04-23T17:03:52.967Z,17.00
2023-04-23T17:06:34.250Z,17.00
2023-04-23T17:09:07.797Z,17.00
2023-04-23T17:11:44.895Z,17.00
2023-04-23T17:14:18.050Z,17.00
2023-04-23T17:16:50.993Z,17.00
2023-04-23T17:19:23.758Z,17.00
2023-04-23T17:21:56.778Z,17.00
2023-04-23T17:24:29.783Z,17.00
2023-04-23T17:27:03.425Z,17.00
2023-04-23T17:29:41.635Z,17.00
2023-04-23T17:32:14.601Z,17.10
2023-04-23T17:34:56.373Z,17.10
2023-04-23T17:37:23.456Z,17.10
2023-04-23T17:39:56.413Z,17.10
2023-04-23T17:42:29.369Z,17.10
2023-04-23T17:45:02.156Z,17.00
2023-04-23T17:47:35.101Z,17.00
2023-04-23T17:50:08.199Z,17.00
2023-04-23T17:52:42.606Z,17.00
2023-04-23T17:55:15.560Z,17.00
2023-04-23T17:57:48.412Z,17.00
2023-04-23T18:00:21.807Z,17.00
2023-04-23T18:02:54.673Z,17.00
2023-04-23T18:05:27.614Z,17.00
2023-04-23T18:08:00.418Z,17.00
2023-04-23T18:10:33.646Z,17.00
2023-04-23T18:13:07.124Z,17.00
2023-04-23T18:15:39.960Z,17.00
2023-04-23T18:18:12.857Z,17.00
2023-04-23T18:20:45.987Z,17.00
2023-04-23T18:23:19.916Z,17.00
2023-04-23T18:25:52.788Z,17.00
2023-04-23T18:28:25.754Z,17.00
2023-04-23T18:31:01.577Z,17.00
2023-04-23T18:33:41.543Z,17.00
2023-04-23T18:36:33.584Z,17.00
2023-04-23T18:39:10.884Z,17.00
2023-04-23T18:41:44.002Z,17.00
2023-04-23T18:44:17.091Z,17.00
2023-04-23T18:46:49.942Z,17.00
2023-04-23T18:49:42.729Z,17.00
2023-04-23T18:52:15.696Z,17.10
2023-04-23T18:54:48.565Z,17.10
2023-04-23T18:57:21.397Z,17.10
2023-04-23T18:59:54.042Z,17.10
2023-04-23T19:02:35.265Z,17.10
2023-04-23T19:05:01.080Z,17.10
2023-04-23T19:07:35.165Z,17.10
2023-04-23T19:10:08.552Z,17.10
2023-04-23T19:12:41.347Z,17.10
2023-04-23T19:15:16.050Z,17.00
2023-04-23T19:17:48.908Z,17.00
2023-04-23T19:20:22.091Z,17.00
2023-04-23T19:22:54.958Z,17.10
2023-04-23T19:25:28.121Z,17.10
2023-04-23T19:28:00.787Z,17.10
2023-04-23T19:30:34.144Z,17.10
2023-04-23T19:33:12.072Z,17.10
2023-04-23T19:35:45.072Z,17.10
2023-04-23T19:38:17.852Z,17.10
2023-04-23T19:40:50.827Z,17.10
2023-04-23T19:43:23.758Z,17.10
2023-04-23T19:45:56.523Z,17.00
2023-04-23T19:48:29.381Z,17.00
2023-04-23T19:51:02.269Z,17.00
2023-04-23T19:53:34.952Z,17.00
2023-04-23T19:56:09.164Z,17.00
2023-04-23T19:58:42.416Z,17.00
2023-04-23T20:01:15.298Z,16.90
2023-04-23T20:03:49.779Z,16.90
2023-04-23T20:06:22.878Z,16.90
2023-04-23T20:09:12.253Z,16.90
2023-04-23T20:11:45.146Z,16.80
2023-04-23T20:14:18.024Z,16.80
2023-04-23T20:16:50.911Z,16.80
2023-04-23T20:19:23.886Z,16.80
2023-04-23T20:21:57.245Z,16.80
2023-04-23T20:24:30.082Z,16.80
2023-04-23T20:27:03.373Z,16.80
2023-04-23T20:29:37.105Z,16.80
2023-04-23T20:32:11.127Z,16.80
2023-04-23T20:34:44.228Z,16.80
2023-04-23T20:37:17.080Z,16.80
2023-04-23T20:39:50.838Z,16.80
2023-04-23T20:42:25.116Z,16.80
2023-04-23T20:44:58.077Z,16.80
2023-04-23T20:47:31.065Z,16.80
2023-04-23T20:50:03.956Z,16.80
2023-04-23T20:52:37.196Z,16.80
2023-04-23T20:55:10.537Z,16.80
2023-04-23T20:57:43.338Z,16.80
2023-04-23T21:00:16.716Z,16.80
2023-04-23T21:02:50.789Z,16.80
2023-04-23T21:05:23.696Z,16.70
2023-04-23T21:07:56.390Z,16.70
2023-04-23T21:10:29.375Z,16.70
2023-04-23T21:13:02.383Z,16.70
2023-04-23T21:15:36.507Z,16.70
2023-04-23T21:18:10.700Z,16.70
2023-04-23T21:20:44.912Z,16.70
2023-04-23T21:23:17.689Z,16.80
2023-04-23T21:25:50.447Z,16.80
2023-04-23T21:28:23.241Z,16.80
2023-04-23T21:31:00.738Z,16.80
2023-04-23T21:33:36.828Z,16.80
2023-04-23T21:36:10.036Z,16.80
2023-04-23T21:38:43.024Z,16.80
2023-04-23T21:41:16.019Z,16.80
2023-04-23T21:43:49.163Z,16.80
2023-04-23T21:46:22.097Z,16.90
2023-04-23T21:48:55.348Z,16.90
2023-04-23T21:51:28.386Z,16.90
2023-04-23T21:54:01.392Z,16.90
2023-04-23T21:56:34.320Z,16.90
2023-04-23T21:59:07.289Z,16.90
2023-04-23T22:01:40.620Z,17.00
2023-04-23T22:04:14.631Z,17.00
2023-04-23T22:06:48.266Z,17.00
2023-04-23T22:09:21.310Z,17.10
2023-04-23T22:12:01.868Z,17.10
2023-04-23T22:14:29.032Z,17.10
2023-04-23T22:17:02.216Z,17.10
2023-04-23T22:19:35.302Z,17.00
2023-04-23T22:22:08.405Z,17.00
2023-04-23T22:24:41.252Z,17.00
2023-04-23T22:27:14.031Z,17.00
2023-04-23T22:29:46.857Z,17.00
2023-04-23T22:32:20.179Z,17.00
2023-04-23T22:34:53.345Z,17.00
2023-04-23T22:37:28.413Z,17.00
2023-04-23T22:40:05.535Z,17.00
2023-04-23T22:42:39.264Z,17.00
2023-04-23T22:45:12.654Z,17.00
2023-04-23T22:47:45.519Z,17.00
2023-04-23T22:50:18.563Z,17.00
2023-04-23T22:52:51.448Z,16.90
2023-04-23T22:55:24.340Z,16.90
2023-04-23T22:57:57.140Z,16.90
2023-04-23T23:00:29.977Z,16.90
2023-04-23T23:03:02.833Z,16.90
2023-04-23T23:05:35.637Z,17.00
2023-04-23T23:08:12.955Z,17.00
2023-04-23T23:10:45.949Z,17.00
2023-04-23T23:13:18.879Z,17.00
2023-04-23T23:15:51.655Z,17.00
2023-04-23T23:18:24.523Z,17.00
2023-04-23T23:20:58.055Z,17.00
2023-04-23T23:23:30.894Z,17.00
2023-04-23T23:26:03.410Z,17.00
2023-04-23T23:28:36.972Z,17.00
2023-04-23T23:31:09.978Z,17.00
2023-04-23T23:33:43.117Z,17.00
2023-04-23T23:36:16.077Z,17.00
2023-04-23T23:38:48.935Z,17.00
2023-04-23T23:41:21.553Z,17.00
2023-04-23T23:43:54.505Z,17.00
2023-04-23T23:46:27.865Z,17.00
2023-04-23T23:49:00.846Z,17.00
2023-04-23T23:51:34.241Z,17.00
2023-04-23T23:54:07.811Z,17.00
2023-04-23T23:56:40.678Z,17.00
2023-04-23T23:59:13.593Z,17.10
